createdAt,value
2023-02-03T00:00:56.097Z,60.52
2023-02-03T00:04:01.646Z,60.67
2023-02-03T00:07:08.636Z,60.70
2023-02-03T00:10:21.500Z,60.58
2023-02-03T00:13:28.352Z,60.63
2023-02-03T00:16:33.802Z,60.82
2023-02-03T00:19:40.074Z,60.50
2023-02-03T00:22:45.522Z,61.08
2023-02-03T00:25:54.648Z,61.74
2023-02-03T00:29:02.606Z,61.37
2023-02-03T00:32:09.927Z,61.64
2023-02-03T00:35:15.674Z,61.35
2023-02-03T00:38:21.938Z,61.86
2023-02-03T00:41:34.436Z,61.26
2023-02-03T00:44:40.642Z,61.74
2023-02-03T00:47:46.626Z,61.00
2023-02-03T00:50:52.961Z,60.94
2023-02-03T00:53:58.355Z,61.58
2023-02-03T00:57:07.556Z,61.27
2023-02-03T01:00:15.143Z,60.89
2023-02-03T01:03:21.630Z,60.99
2023-02-03T01:06:29.353Z,60.44
2023-02-03T01:09:37.448Z,60.86
2023-02-03T01:12:45.811Z,60.25
2023-02-03T01:15:52.048Z,60.75
2023-02-03T01:18:59.398Z,60.29
2023-02-03T01:22:07.625Z,59.86
2023-02-03T01:25:13.191Z,59.52
2023-02-03T01:28:22.467Z,59.77
2023-02-03T01:31:32.024Z,59.88
2023-02-03T01:34:38.573Z,60.21
2023-02-03T01:37:44.697Z,60.07
2023-02-03T01:40:50.984Z,59.86
2023-02-03T01:44:02.660Z,60.12
2023-02-03T01:47:30.254Z,60.12
2023-02-03T01:50:41.032Z,60.67
2023-02-03T01:53:48.298Z,59.73
2023-02-03T01:57:04.922Z,60.56
2023-02-03T02:00:16.830Z,60.71
2023-02-03T02:03:29.689Z,60.42
2023-02-03T02:06:36.029Z,60.37
2023-02-03T02:09:42.054Z,60.29
2023-02-03T02:12:48.686Z,59.21
2023-02-03T02:16:10.260Z,59.29
2023-02-03T02:20:06.109Z,58.68
2023-02-03T02:24:25.643Z,58.83
2023-02-03T02:28:20.151Z,59.45
2023-02-03T02:32:12.845Z,59.75
2023-02-03T02:35:41.611Z,59.56
2023-02-03T02:39:04.117Z,60.08
2023-02-03T02:42:24.239Z,60.40
2023-02-03T02:45:42.163Z,60.18
2023-02-03T02:49:00.672Z,59.38
2023-02-03T02:52:11.815Z,58.60
2023-02-03T02:55:27.982Z,59.39
2023-02-03T02:58:42.472Z,59.56
2023-02-03T03:01:48.751Z,59.66
2023-02-03T03:04:58.540Z,60.27
2023-02-03T03:08:06.209Z,60.30
2023-02-03T03:11:12.886Z,60.32
2023-02-03T03:14:26.713Z,60.21
2023-02-03T03:17:43.607Z,61.33
2023-02-03T03:21:06.126Z,60.97
2023-02-03T03:24:22.041Z,61.45
2023-02-03T03:27:35.938Z,60.67
2023-02-03T03:30:43.172Z,61.11
2023-02-03T03:33:51.043Z,60.92
2023-02-03T03:37:14.292Z,61.58
2023-02-03T03:40:30.021Z,60.67
2023-02-03T03:43:46.750Z,61.10
2023-02-03T03:47:03.720Z,60.63
2023-02-03T03:50:17.574Z,60.13
2023-02-03T03:53:31.917Z,59.71
2023-02-03T03:56:59.769Z,59.54
2023-02-03T04:00:12.628Z,59.86
2023-02-03T04:03:27.373Z,60.11
2023-02-03T04:06:32.892Z,59.57
2023-02-03T04:09:43.097Z,59.17
2023-02-03T04:12:48.693Z,59.32
2023-02-03T04:15:55.227Z,58.97
2023-02-03T04:19:00.595Z,58.94
2023-02-03T04:22:06.795Z,58.80
2023-02-03T04:25:14.957Z,58.04
2023-02-03T04:28:21.137Z,57.62
2023-02-03T04:31:26.588Z,58.97
2023-02-03T04:34:32.904Z,59.02
2023-02-03T04:37:38.353Z,59.68
2023-02-03T04:40:47.688Z,59.87
2023-02-03T04:43:53.132Z,59.90
2023-02-03T04:46:59.607Z,58.95
2023-02-03T04:50:05.320Z,59.10
2023-02-03T04:53:11.842Z,59.08
2023-02-03T04:56:20.227Z,59.60
2023-02-03T04:59:26.679Z,59.06
2023-02-03T05:02:33.384Z,58.15
2023-02-03T05:05:39.889Z,59.03
2023-02-03T05:08:45.289Z,58.68
2023-02-03T05:11:54.335Z,59.02
2023-02-03T05:14:59.697Z,58.80
2023-02-03T05:18:05.935Z,58.83
2023-02-03T05:21:12.134Z,58.48
2023-02-03T05:24:18.313Z,58.44
2023-02-03T05:27:26.773Z,59.08
2023-02-03T05:30:33.013Z,58.47
2023-02-03T05:33:38.408Z,58.93
2023-02-03T05:36:44.906Z,58.69
2023-02-03T05:39:50.289Z,58.35
2023-02-03T05:42:56.558Z,58.64
2023-02-03T05:46:04.135Z,58.34
2023-02-03T05:49:10.524Z,58.75
2023-02-03T05:52:16.044Z,58.45
2023-02-03T05:55:22.523Z,58.57
2023-02-03T05:58:30.761Z,58.42
2023-02-03T06:01:38.598Z,58.25
2023-02-03T06:04:44.196Z,58.81
2023-02-03T06:07:50.702Z,58.31
2023-02-03T06:11:01.642Z,57.92
2023-02-03T06:14:11.067Z,58.35
2023-02-03T06:17:16.451Z,58.18
2023-02-03T06:20:23.896Z,58.95
2023-02-03T06:23:29.569Z,58.14
2023-02-03T06:26:35.923Z,58.16
2023-02-03T06:29:44.261Z,58.17
2023-02-03T06:32:51.780Z,58.50
2023-02-03T06:35:57.453Z,58.74
2023-02-03T06:39:03.700Z,58.41
2023-02-03T06:42:09.574Z,58.14
2023-02-03T06:45:19.161Z,57.99
2023-02-03T06:48:24.553Z,57.89
2023-02-03T06:51:30.798Z,57.62
2023-02-03T06:54:36.897Z,56.93
2023-02-03T06:57:52.045Z,56.82
2023-02-03T07:01:01.808Z,56.85
2023-02-03T07:04:09.071Z,56.54
2023-02-03T07:07:14.844Z,56.63
2023-02-03T07:10:21.675Z,56.35
2023-02-03T07:13:27.280Z,56.02
2023-02-03T07:16:37.720Z,56.20
2023-02-03T07:19:45.730Z,55.92
2023-02-03T07:22:56.861Z,56.06
2023-02-03T07:26:04.686Z,55.49
2023-02-03T07:29:11.100Z,56.00
2023-02-03T07:32:19.285Z,55.42
2023-02-03T07:35:26.108Z,55.27
2023-02-03T07:38:32.247Z,55.01
2023-02-03T07:41:38.492Z,55.74
2023-02-03T07:44:45.228Z,55.46
2023-02-03T07:47:54.364Z,55.01
2023-02-03T07:50:59.713Z,54.75
2023-02-03T07:54:09.098Z,54.73
2023-02-03T07:57:14.474Z,53.95
2023-02-03T08:00:22.180Z,53.53
2023-02-03T08:03:30.642Z,54.02
2023-02-03T08:06:37.690Z,53.28
2023-02-03T08:09:43.075Z,53.33
2023-02-03T08:12:49.324Z,53.93
2023-02-03T08:15:55.033Z,53.22
2023-02-03T08:19:04.276Z,53.55
2023-02-03T08:22:16.023Z,53.80
2023-02-03T08:25:22.868Z,53.14
2023-02-03T08:28:28.466Z,53.22
2023-02-03T08:31:35.186Z,53.59
2023-02-03T08:34:44.931Z,53.74
2023-02-03T08:37:51.416Z,53.85
2023-02-03T08:40:56.807Z,53.68
2023-02-03T08:44:03.284Z,54.32
2023-02-03T08:47:10.359Z,54.97
2023-02-03T08:50:20.122Z,55.84
2023-02-03T08:53:25.539Z,56.65
2023-02-03T08:56:32.052Z,57.63
2023-02-03T08:59:44.156Z,59.68
2023-02-03T09:02:50.708Z,60.78
2023-02-03T09:06:00.900Z,61.10
2023-02-03T09:09:07.836Z,62.30
2023-02-03T09:12:13.608Z,62.63
2023-02-03T09:15:20.128Z,62.54
2023-02-03T09:18:25.513Z,62.74
2023-02-03T09:21:40.090Z,63.61
2023-02-03T09:24:51.901Z,63.58
2023-02-03T09:27:58.571Z,63.46
2023-02-03T09:31:05.264Z,63.79
2023-02-03T09:34:12.502Z,63.94
2023-02-03T09:37:21.064Z,63.58
2023-02-03T09:40:36.515Z,64.07
2023-02-03T09:43:52.509Z,63.82
2023-02-03T09:47:05.067Z,64.43
2023-02-03T09:50:23.019Z,63.80
2023-02-03T09:53:41.189Z,64.28
2023-02-03T09:56:52.530Z,64.46
2023-02-03T10:00:02.852Z,64.62
2023-02-03T10:03:22.640Z,64.96
2023-02-03T10:06:39.261Z,64.88
2023-02-03T10:10:06.980Z,64.80
2023-02-03T10:13:34.821Z,65.28
2023-02-03T10:17:07.664Z,65.28
2023-02-03T10:20:22.874Z,65.86
2023-02-03T10:23:38.368Z,65.51
2023-02-03T10:26:47.672Z,65.66
2023-02-03T10:30:03.875Z,66.08
2023-02-03T10:33:16.496Z,65.48
2023-02-03T10:36:25.462Z,66.06
2023-02-03T10:39:39.920Z,66.52
2023-02-03T10:43:08.003Z,66.45
2023-02-03T10:46:14.465Z,66.40
2023-02-03T10:49:21.850Z,66.84
2023-02-03T10:52:34.223Z,66.84
2023-02-03T10:55:40.324Z,67.27
2023-02-03T10:58:56.761Z,66.86
2023-02-03T11:02:02.602Z,67.49
2023-02-03T11:05:25.173Z,67.21
2023-02-03T11:08:34.025Z,67.60
2023-02-03T11:11:42.132Z,67.88
2023-02-03T11:14:53.750Z,68.05
2023-02-03T11:18:00.095Z,68.49
2023-02-03T11:21:13.928Z,68.24
2023-02-03T11:24:27.001Z,67.53
2023-02-03T11:27:36.652Z,68.46
2023-02-03T11:30:46.365Z,68.18
2023-02-03T11:33:59.156Z,67.99
2023-02-03T11:37:31.413Z,68.00
2023-02-03T11:40:38.700Z,68.78
2023-02-03T11:43:45.023Z,68.27
2023-02-03T11:47:00.582Z,68.59
2023-02-03T11:50:32.476Z,68.80
2023-02-03T11:54:08.072Z,68.47
2023-02-03T11:57:36.965Z,68.78
2023-02-03T12:01:04.232Z,69.14
2023-02-03T12:05:04.577Z,68.95
2023-02-03T12:08:31.760Z,69.02
2023-02-03T12:12:05.481Z,69.44
2023-02-03T12:15:50.385Z,69.09
2023-02-03T12:19:17.389Z,69.18
2023-02-03T12:22:45.201Z,69.81
2023-02-03T12:26:12.229Z,69.47
2023-02-03T12:29:28.170Z,70.72
2023-02-03T12:32:49.981Z,69.98
2023-02-03T12:36:14.850Z,70.65
2023-02-03T12:39:45.845Z,71.06
2023-02-03T12:43:00.924Z,71.30
2023-02-03T12:46:20.519Z,71.18
2023-02-03T12:49:42.723Z,71.01
2023-02-03T12:52:56.661Z,71.01
2023-02-03T12:56:12.891Z,71.36
2023-02-03T12:59:26.801Z,71.47
2023-02-03T13:02:45.655Z,71.54
2023-02-03T13:06:02.049Z,71.58
2023-02-03T13:09:28.612Z,71.56
2023-02-03T13:12:48.013Z,72.11
2023-02-03T13:15:59.902Z,72.30
2023-02-03T13:19:18.272Z,72.82
2023-02-03T13:22:26.887Z,72.25
2023-02-03T13:25:59.806Z,72.56
2023-02-03T13:29:38.629Z,71.95
2023-02-03T13:33:42.917Z,73.08
2023-02-03T13:37:28.984Z,72.94
2023-02-03T13:40:54.535Z,72.99
2023-02-03T13:44:02.691Z,73.04
2023-02-03T13:47:24.560Z,73.28
2023-02-03T13:50:34.054Z,73.24
2023-02-03T13:53:46.388Z,73.87
2023-02-03T13:57:03.031Z,73.27
2023-02-03T14:00:53.526Z,73.14
2023-02-03T14:04:02.301Z,73.25
2023-02-03T14:07:36.809Z,73.64
2023-02-03T14:10:42.440Z,73.73
2023-02-03T14:13:48.669Z,73.84
2023-02-03T14:16:56.686Z,74.25
2023-02-03T14:20:39.917Z,74.28
2023-02-03T14:23:57.375Z,74.75
2023-02-03T14:27:19.657Z,74.80
2023-02-03T14:30:25.126Z,75.07
2023-02-03T14:33:54.819Z,74.83
2023-02-03T14:37:25.003Z,75.55
2023-02-03T14:40:51.436Z,75.26
2023-02-03T14:44:16.840Z,75.61
2023-02-03T14:47:51.166Z,75.51
2023-02-03T14:51:17.721Z,75.91
2023-02-03T14:54:53.685Z,76.41
2023-02-03T14:58:06.901Z,76.25
2023-02-03T15:01:29.865Z,76.72
2023-02-03T15:04:35.566Z,76.32
2023-02-03T15:07:49.181Z,76.09
2023-02-03T15:10:57.769Z,76.51
2023-02-03T15:14:26.733Z,76.75
2023-02-03T15:17:33.063Z,76.37
2023-02-03T15:20:43.380Z,76.34
2023-02-03T15:23:52.323Z,76.44
2023-02-03T15:27:01.290Z,76.95
2023-02-03T15:30:22.027Z,76.53
2023-02-03T15:33:29.434Z,76.84
2023-02-03T15:36:47.423Z,76.72
2023-02-03T15:40:05.631Z,76.65
2023-02-03T15:43:24.795Z,76.61
2023-02-03T15:46:42.074Z,76.53
2023-02-03T15:49:54.896Z,76.48
2023-02-03T15:53:12.913Z,76.39
2023-02-03T15:56:35.484Z,76.76
2023-02-03T15:59:57.084Z,76.55
2023-02-03T16:03:08.513Z,77.33
2023-02-03T16:06:28.407Z,77.55
2023-02-03T16:09:37.020Z,77.28
2023-02-03T16:12:43.411Z,77.01
2023-02-03T16:16:05.951Z,76.69
2023-02-03T16:19:20.588Z,76.55
2023-02-03T16:22:33.389Z,76.33
2023-02-03T16:25:39.738Z,76.66
2023-02-03T16:29:01.588Z,76.23
2023-02-03T16:32:46.390Z,75.94
2023-02-03T16:36:07.577Z,76.18
2023-02-03T16:39:31.951Z,76.16
2023-02-03T16:42:59.134Z,75.79
2023-02-03T16:46:21.165Z,76.20
2023-02-03T16:49:44.896Z,75.93
2023-02-03T16:52:51.191Z,76.33
2023-02-03T16:55:59.892Z,76.22
2023-02-03T16:59:06.472Z,76.63
2023-02-03T17:02:14.368Z,78.11
2023-02-03T17:05:24.281Z,78.09
2023-02-03T17:08:29.766Z,77.55
2023-02-03T17:11:36.052Z,78.22
2023-02-03T17:14:41.703Z,77.61
2023-02-03T17:17:48.006Z,77.92
2023-02-03T17:20:58.874Z,77.51
2023-02-03T17:24:05.762Z,78.00
2023-02-03T17:27:11.392Z,77.92
2023-02-03T17:30:18.879Z,78.65
2023-02-03T17:33:24.313Z,78.68
2023-02-03T17:36:33.284Z,78.56
2023-02-03T17:56:29.355Z,77.41
2023-02-03T17:59:35.692Z,77.64
2023-02-03T18:02:43.339Z,77.10
2023-02-03T18:05:54.107Z,76.91
2023-02-03T18:09:04.096Z,76.78
2023-02-03T18:12:10.236Z,77.03
2023-02-03T18:15:16.806Z,77.16
2023-02-03T18:18:23.292Z,77.81
2023-02-03T18:21:32.428Z,76.91
2023-02-03T18:24:40.700Z,76.83
2023-02-03T18:27:47.486Z,76.12
2023-02-03T18:30:53.535Z,75.99
2023-02-03T18:34:05.639Z,75.90
2023-02-03T18:37:11.705Z,76.36
2023-02-03T18:40:21.285Z,75.38
2023-02-03T18:43:26.803Z,75.83
2023-02-03T18:46:35.526Z,75.75
2023-02-03T18:49:41.326Z,75.04
2023-02-03T18:52:48.118Z,75.42
2023-02-03T18:55:56.536Z,74.83
2023-02-03T18:59:02.745Z,75.05
2023-02-03T19:02:08.152Z,76.16
2023-02-03T19:05:14.740Z,76.85
2023-02-03T19:08:20.623Z,77.46
2023-02-03T19:11:29.901Z,77.41
2023-02-03T19:14:35.731Z,77.36
2023-02-03T19:17:42.630Z,77.82
2023-02-03T19:20:48.512Z,78.06
2023-02-03T19:23:54.855Z,77.97
2023-02-03T19:27:03.046Z,78.08
2023-02-03T19:30:10.233Z,78.35
2023-02-03T19:33:16.377Z,77.53
2023-02-03T19:36:22.815Z,78.32
2023-02-03T19:39:28.322Z,78.60
2023-02-03T19:42:37.347Z,78.74
2023-02-03T19:45:42.829Z,78.97
2023-02-03T19:48:49.712Z,79.17
2023-02-03T19:51:55.491Z,79.13
2023-02-03T19:55:01.941Z,79.18
2023-02-03T19:58:10.137Z,78.97
2023-02-03T20:01:16.536Z,79.05
2023-02-03T20:04:22.836Z,79.27
2023-02-03T20:07:32.707Z,79.13
2023-02-03T20:10:38.579Z,79.37
2023-02-03T20:13:47.829Z,79.05
2023-02-03T20:16:53.298Z,79.23
2023-02-03T20:19:59.900Z,79.44
2023-02-03T20:23:05.547Z,79.69
2023-02-03T20:26:14.236Z,79.60
2023-02-03T20:29:22.581Z,79.35
2023-02-03T20:32:29.375Z,79.28
2023-02-03T20:35:34.913Z,78.98
2023-02-03T20:38:41.333Z,78.58
2023-02-03T20:41:47.182Z,79.32
2023-02-03T20:44:57.007Z,78.94
2023-02-03T20:48:02.839Z,78.86
2023-02-03T20:51:14.584Z,78.99
2023-02-03T20:54:22.489Z,78.88
2023-02-03T20:57:28.756Z,78.78
2023-02-03T21:00:37.071Z,78.47
2023-02-03T21:04:04.501Z,78.58
2023-02-03T21:07:18.277Z,79.11
2023-02-03T21:10:28.147Z,78.99
2023-02-03T21:13:38.886Z,79.35
2023-02-03T21:16:48.188Z,78.62
2023-02-03T21:19:55.951Z,78.87
2023-02-03T21:23:02.495Z,79.55
2023-02-03T21:26:22.248Z,79.47
2023-02-03T21:29:32.863Z,79.22
2023-02-03T21:32:44.254Z,79.76
2023-02-03T21:35:50.534Z,79.70
2023-02-03T21:38:59.403Z,79.53
2023-02-03T21:42:43.647Z,79.65
2023-02-03T21:45:50.063Z,79.33
2023-02-03T21:49:00.780Z,79.10
2023-02-03T21:52:06.953Z,79.26
2023-02-03T21:55:19.233Z,78.79
2023-02-03T21:58:29.248Z,78.90
2023-02-03T22:01:40.323Z,79.50
2023-02-03T22:04:48.448Z,79.67
2023-02-03T22:07:55.021Z,79.21
2023-02-03T22:11:00.596Z,79.60
2023-02-03T22:14:07.297Z,79.24
2023-02-03T22:17:14.263Z,79.94
2023-02-03T22:20:23.921Z,79.64
2023-02-03T22:23:29.427Z,78.94
2023-02-03T22:26:35.960Z,79.25
2023-02-03T22:29:41.926Z,78.58
2023-02-03T22:32:48.342Z,79.08
2023-02-03T22:35:56.521Z,78.78
2023-02-03T22:39:02.747Z,78.45
2023-02-03T22:42:08.356Z,77.60
2023-02-03T22:45:17.990Z,77.71
2023-02-03T22:48:24.818Z,77.92
2023-02-03T22:51:33.795Z,78.82
2023-02-03T22:54:39.833Z,79.45
2023-02-03T22:57:46.058Z,78.92
2023-02-03T23:00:51.537Z,78.81
2023-02-03T23:03:57.998Z,79.43
2023-02-03T23:07:06.254Z,79.40
2023-02-03T23:10:17.531Z,79.15
2023-02-03T23:13:23.022Z,79.56
2023-02-03T23:16:29.254Z,78.97
2023-02-03T23:19:34.700Z,78.53
2023-02-03T23:22:43.790Z,78.99
2023-02-03T23:25:49.105Z,79.73
2023-02-03T23:28:55.304Z,79.30
2023-02-03T23:32:00.922Z,79.22
2023-02-03T23:35:23.870Z,79.53
2023-02-03T23:38:33.528Z,79.44
2023-02-03T23:41:39.862Z,79.70
2023-02-03T23:44:45.315Z,78.64
2023-02-03T23:47:51.710Z,79.07
2023-02-03T23:50:57.354Z,79.01
2023-02-03T23:54:06.707Z,79.87
2023-02-03T23:57:12.147Z,78.98
